Terminal Aerodrome Forecast
Issued by NWS

Home | Current Version | Previous Version | Graphics & Text | Print | Product List | Glossary On
Versions: 1 2 3 4 5 6 7 8 9 10 11 12 13 14 15 16
000
FTUS43 KUNR 272300
TAFGCC
TAF
KGCC 272320Z 2800/2824 16012KT P6SM BKN040
      TEMPO 2800/2802 TSRA BKN025CB
     FM280500 21012KT P6SM SCT150
     FM281500 31010KT P6SM SCT150=

USA.gov is the U.S. government's official web portal to all federal, state and local government web resources and services.